Time;durP1;ratioP1;P1;durP2;ratioP2;P2;SDS_P1;SDS_P2;PMS_P1;PMS_P2;Temp;Humidity;BMP_temperature;BMP_pressure;BME280_temperature;BME280_humidity;BME280_pressure;Samples;Min_cycle;Max_cycle;Signal;HPM_P1;HPM_P2
2022/10/21 00:00:16;;;;;;;6.87;4.93;;;;;;;9.11;97.29;95284.34;5069857;28;20259;-60
2022/10/21 00:02:42;;;;;;;6.10;4.57;;;;;;;9.21;96.83;95305.63;5052751;28;20189;-61
2022/10/21 00:05:08;;;;;;;9.03;5.20;;;;;;;9.21;96.20;95312.47;5070696;28;20729;-60
2022/10/21 00:07:34;;;;;;;5.37;4.77;;;;;;;9.26;96.42;95312.94;5070660;28;20208;-59
2022/10/21 00:10:00;;;;;;;6.13;5.03;;;;;;;9.24;96.29;95309.69;5070597;28;20295;-58
2022/10/21 00:12:27;;;;;;;9.00;5.93;;;;;;;9.29;95.31;95322.88;5070838;28;20291;-60
2022/10/21 00:14:53;;;;;;;6.33;5.30;;;;;;;9.20;96.82;95293.06;5070861;28;20212;-61
2022/10/21 00:17:18;;;;;;;6.27;5.63;;;;;;;9.23;96.10;95318.22;5070558;28;20657;-61
2022/10/21 00:19:44;;;;;;;6.93;5.40;;;;;;;9.37;97.25;95299.50;5070793;28;20694;-60
2022/10/21 00:22:09;;;;;;;7.77;6.13;;;;;;;9.32;96.11;95307.44;5070587;28;20275;-59
2022/10/21 00:24:35;;;;;;;8.73;6.13;;;;;;;9.35;95.38;95319.94;5070825;28;20706;-61
2022/10/21 00:27:01;;;;;;;8.80;5.73;;;;;;;9.25;97.63;95291.03;5070550;28;20189;-59
2022/10/21 00:29:27;;;;;;;9.60;5.77;;;;;;;9.14;98.90;95285.88;5070576;28;20209;-59
2022/10/21 00:31:53;;;;;;;6.50;5.37;;;;;;;9.19;96.55;95314.28;5070329;28;20216;-61
2022/10/21 00:34:19;;;;;;;7.87;5.03;;;;;;;9.07;97.14;95299.91;5070308;28;20201;-61
2022/10/21 00:36:45;;;;;;;7.00;5.03;;;;;;;9.06;96.82;95300.81;5070356;28;20585;-62
2022/10/21 00:39:10;;;;;;;6.37;5.40;;;;;;;9.12;96.05;95318.97;5070642;28;20209;-61
2022/10/21 00:41:36;;;;;;;6.07;5.33;;;;;;;9.02;96.99;95304.47;5070261;28;20188;-61
2022/10/21 00:44:04;;;;;;;6.10;4.93;;;;;;;9.06;96.13;95303.34;5070629;28;20209;-59
2022/10/21 00:46:39;;;;;;;7.33;5.53;;;;;;;8.98;97.24;95298.00;5070267;28;20669;-59
2022/10/21 00:49:11;;;;;;;6.03;5.00;;;;;;;8.80;99.17;95271.34;5070474;28;20298;-61
2022/10/21 00:51:37;;;;;;;9.80;5.73;;;;;;;8.81;98.48;95285.63;5052178;28;20216;-58
2022/10/21 00:54:04;;;;;;;12.53;6.43;;;;;;;8.76;98.63;95280.91;5070485;28;20223;-61
2022/10/21 00:56:33;;;;;;;9.33;5.80;;;;;;;8.74;98.65;95289.50;5070007;28;20191;-61
2022/10/21 00:59:00;;;;;;;5.77;4.70;;;;;;;8.68;98.99;95280.59;5052258;28;20216;-60
2022/10/21 01:01:26;;;;;;;9.87;5.00;;;;;;;8.53;100.00;95252.91;5070061;28;20617;-60
2022/10/21 01:03:51;;;;;;;7.70;4.90;;;;;;;8.70;100.00;95262.75;5070031;28;20209;-61
2022/10/21 01:06:20;;;;;;;5.70;4.70;;;;;;;8.65;99.82;95269.84;5070085;28;20235;-61
2022/10/21 01:08:47;;;;;;;5.33;4.83;;;;;;;8.61;99.17;95279.38;5070158;28;20208;-60
2022/10/21 01:11:16;;;;;;;8.90;6.30;;;;;;;8.54;99.01;95274.84;5070447;28;20266;-61
2022/10/21 01:14:20;;;;;;;7.10;5.20;;;;;;;8.50;100.00;95266.63;5073255;28;20742;-62
2022/10/21 01:17:11;;;;;;;7.57;5.77;;;;;;;8.56;100.00;95276.34;5017805;28;20674;-60
2022/10/21 01:20:03;;;;;;;7.77;5.70;;;;;;;8.58;100.00;95261.03;5073234;28;20205;-61
2022/10/21 01:22:31;;;;;;;6.80;5.00;;;;;;;8.63;100.00;95262.34;5073279;28;20334;-60
2022/10/21 01:25:39;;;;;;;7.90;5.23;;;;;;;8.69;100.00;95273.78;5079885;23;20788;-60
2022/10/21 01:28:42;;;;;;;7.63;5.20;;;;;;;8.68;100.00;95280.59;5073383;28;20220;-61
2022/10/21 01:31:19;;;;;;;6.57;5.87;;;;;;;8.59;100.00;95267.72;5053057;28;20283;-61
2022/10/21 01:33:49;;;;;;;8.27;5.30;;;;;;;8.51;100.00;95268.22;5052978;28;20189;-61
2022/10/21 01:36:29;;;;;;;9.37;6.03;;;;;;;8.31;100.00;95261.16;5052900;28;20269;-60
2022/10/21 01:39:24;;;;;;;8.40;5.93;;;;;;;8.27;100.00;95282.53;5053479;28;20236;-60
2022/10/21 01:41:52;;;;;;;7.10;5.63;;;;;;;8.14;100.00;95285.00;5053100;28;20181;-60
2022/10/21 01:44:20;;;;;;;7.87;5.53;;;;;;;8.18;100.00;95300.84;5053024;28;20296;-60
2022/10/21 01:46:48;;;;;;;8.00;5.83;;;;;;;8.12;100.00;95294.44;5051535;28;20267;-59
2022/10/21 01:49:25;;;;;;;9.97;6.03;;;;;;;8.04;100.00;95304.25;5051615;28;20224;-62
2022/10/21 01:51:53;;;;;;;8.23;6.03;;;;;;;8.12;100.00;95307.09;5051423;28;20303;-60
2022/10/21 01:54:25;;;;;;;8.87;7.00;;;;;;;8.12;100.00;95301.25;5052984;28;20644;-59
2022/10/21 01:56:52;;;;;;;9.37;6.03;;;;;;;8.18;100.00;95301.63;5052775;28;20204;-58
2022/10/21 01:59:19;;;;;;;8.60;6.30;;;;;;;8.08;100.00;95297.28;5034896;28;20767;-58
2022/10/21 02:01:47;;;;;;;10.53;7.07;;;;;;;8.21;100.00;95319.16;5052655;28;20193;-61
2022/10/21 02:04:15;;;;;;;7.27;6.47;;;;;;;8.06;100.00;95306.69;5052992;28;20300;-58
2022/10/21 02:06:41;;;;;;;8.80;6.50;;;;;;;8.11;100.00;95304.66;5052611;28;20247;-62
2022/10/21 02:09:06;;;;;;;9.57;7.20;;;;;;;8.10;100.00;95308.91;5052798;28;20620;-60
2022/10/21 02:11:36;;;;;;;13.67;7.03;;;;;;;8.20;100.00;95309.94;5052649;28;20217;-60
2022/10/21 02:14:24;;;;;;;13.73;7.97;;;;;;;8.17;100.00;95312.69;5052633;28;20225;-61
2022/10/21 02:16:51;;;;;;;10.70;7.30;;;;;;;8.10;100.00;95313.19;5051909;28;20275;-58
2022/10/21 02:19:19;;;;;;;13.53;7.43;;;;;;;8.27;100.00;95328.94;5052144;28;20217;-59
2022/10/21 02:21:46;;;;;;;9.30;6.77;;;;;;;8.30;100.00;95312.72;5052288;28;20189;-58
2022/10/21 02:25:04;;;;;;;11.30;6.80;;;;;;;8.23;100.00;95319.88;5052015;28;20239;-58
2022/10/21 02:27:30;;;;;;;8.13;6.87;;;;;;;8.06;100.00;95312.53;5034736;28;20255;-59
2022/10/21 02:29:58;;;;;;;10.03;6.77;;;;;;;8.19;100.00;95328.59;5052447;28;20635;-59
2022/10/21 02:32:45;;;;;;;10.60;7.13;;;;;;;7.99;100.00;95318.09;5052187;28;20248;-61
2022/10/21 02:35:43;;;;;;;10.97;6.80;;;;;;;8.14;100.00;95329.81;5050994;28;20221;-60
2022/10/21 02:38:15;;;;;;;9.83;7.10;;;;;;;8.16;100.00;95323.72;5020902;28;20291;-60
2022/10/21 02:40:46;;;;;;;8.33;6.60;;;;;;;8.28;100.00;95329.75;5052313;28;20227;-60
2022/10/21 02:43:20;;;;;;;9.67;6.20;;;;;;;8.20;100.00;95332.72;5050986;28;20201;-61
2022/10/21 02:45:47;;;;;;;9.13;6.20;;;;;;;8.32;100.00;95334.50;5051900;28;20217;-60
2022/10/21 02:48:12;;;;;;;10.10;6.53;;;;;;;8.26;100.00;95334.09;5051959;28;20196;-62
2022/10/21 02:50:38;;;;;;;12.90;7.43;;;;;;;8.36;100.00;95335.13;5051776;28;20209;-60
2022/10/21 02:53:03;;;;;;;8.87;7.13;;;;;;;8.44;100.00;95343.03;5051958;28;20209;-60
2022/10/21 02:55:29;;;;;;;11.77;7.07;;;;;;;8.52;100.00;95350.97;5050532;28;20209;-60
2022/10/21 02:57:55;;;;;;;12.03;7.40;;;;;;;8.53;100.00;95351.75;5051629;28;20185;-58
2022/10/21 03:00:20;;;;;;;14.50;7.73;;;;;;;8.50;100.00;95339.28;5051577;28;20232;-61
2022/10/21 03:02:46;;;;;;;10.27;7.83;;;;;;;8.49;100.00;95330.88;5051997;28;20671;-59
2022/10/21 03:05:11;;;;;;;11.07;8.03;;;;;;;8.38;100.00;95328.25;5051799;28;20210;-61
2022/10/21 03:07:37;;;;;;;10.70;7.60;;;;;;;8.36;100.00;95320.72;5051633;28;20261;-62
2022/10/21 03:10:03;;;;;;;12.10;7.87;;;;;;;8.34;100.00;95327.59;5052078;28;20632;-60
2022/10/21 03:12:29;;;;;;;14.03;7.40;;;;;;;8.27;100.00;95321.34;5051711;28;20213;-60
2022/10/21 03:14:54;;;;;;;12.07;7.23;;;;;;;8.22;100.00;95327.59;5051800;28;20216;-59
2022/10/21 03:17:20;;;;;;;10.17;7.23;;;;;;;8.14;100.00;95330.59;5051438;28;20600;-60
2022/10/21 03:19:45;;;;;;;13.03;7.97;;;;;;;8.24;100.00;95331.63;5051631;28;20209;-59
2022/10/21 03:22:10;;;;;;;14.27;7.83;;;;;;;8.15;100.00;95337.28;5051452;28;20201;-60
2022/10/21 03:24:36;;;;;;;11.80;8.37;;;;;;;8.22;100.00;95333.44;5051372;28;20687;-61
2022/10/21 03:27:01;;;;;;;11.17;7.90;;;;;;;8.27;100.00;95340.78;5051350;28;20185;-61
2022/10/21 03:29:27;;;;;;;11.43;7.97;;;;;;;8.29;100.00;95344.03;5051714;28;20414;-59
2022/10/21 03:31:52;;;;;;;11.70;7.37;;;;;;;8.23;100.00;95335.06;5051211;28;20213;-58
2022/10/21 03:34:17;;;;;;;15.50;8.77;;;;;;;8.35;100.00;95344.44;5050747;28;20206;-61
2022/10/21 03:36:43;;;;;;;13.20;8.93;;;;;;;8.44;100.00;95343.84;5050563;28;20182;-58
2022/10/21 03:39:12;;;;;;;10.20;8.40;;;;;;;8.37;100.00;95342.63;5051307;28;20713;-60
2022/10/21 03:41:37;;;;;;;16.03;8.40;;;;;;;8.39;100.00;95345.06;5051113;28;20186;-60
2022/10/21 03:44:03;;;;;;;12.67;7.60;;;;;;;8.32;100.00;95342.09;5051554;28;20213;-62
2022/10/21 03:46:28;;;;;;;13.63;8.70;;;;;;;7.95;100.00;95344.53;5051199;28;20192;-62
2022/10/21 03:48:54;;;;;;;13.47;8.60;;;;;;;7.84;100.00;95352.78;5051278;28;20209;-62
2022/10/21 03:51:20;;;;;;;14.07;8.43;;;;;;;7.61;100.00;95349.16;5051001;28;20212;-60
2022/10/21 03:53:45;;;;;;;21.77;9.47;;;;;;;7.37;100.00;95354.94;5051159;28;20220;-62
2022/10/21 03:56:12;;;;;;;20.10;8.93;;;;;;;7.30;100.00;95357.03;5050821;28;20201;-61
2022/10/21 03:58:37;;;;;;;14.87;8.77;;;;;;;7.41;100.00;95358.91;5051105;28;20648;-65
2022/10/21 04:01:03;;;;;;;13.90;9.17;;;;;;;7.54;100.00;95360.56;5050945;28;20195;-61
2022/10/21 04:03:29;;;;;;;13.37;8.73;;;;;;;7.54;100.00;95354.69;5051054;28;20600;-61
2022/10/21 04:05:54;;;;;;;13.57;8.13;;;;;;;7.43;100.00;95362.16;5050961;28;20604;-62
2022/10/21 04:08:20;;;;;;;15.93;8.87;;;;;;;7.48;100.00;95363.50;5032880;28;20189;-62
2022/10/21 04:10:46;;;;;;;12.70;9.07;;;;;;;7.49;100.00;95360.03;5050687;28;20225;-62
2022/10/21 04:13:12;;;;;;;15.17;9.17;;;;;;;7.43;100.00;95373.06;5050969;28;20342;-60
2022/10/21 04:15:37;;;;;;;12.40;7.97;;;;;;;7.43;100.00;95375.59;5051202;28;20624;-60
2022/10/21 04:18:04;;;;;;;15.03;9.07;;;;;;;7.48;100.00;95368.53;5032587;28;20322;-60
2022/10/21 04:20:30;;;;;;;13.37;9.47;;;;;;;7.60;100.00;95369.50;5050469;28;20216;-61
2022/10/21 04:22:56;;;;;;;18.13;9.53;;;;;;;7.51;100.00;95360.75;5050516;28;20178;-61
2022/10/21 04:25:21;;;;;;;13.80;9.27;;;;;;;7.61;100.00;95366.09;5050494;28;20201;-60
2022/10/21 04:27:46;;;;;;;12.73;8.07;;;;;;;7.76;100.00;95375.25;5050399;28;20186;-60
2022/10/21 04:30:12;;;;;;;12.50;8.87;;;;;;;7.84;100.00;95369.72;5050395;28;20205;-61
2022/10/21 04:32:37;;;;;;;16.63;9.23;;;;;;;7.77;100.00;95371.00;5050304;28;20220;-61
2022/10/21 04:35:03;;;;;;;11.70;8.40;;;;;;;8.09;100.00;95398.47;5050183;28;20206;-58
2022/10/21 04:37:28;;;;;;;12.97;8.30;;;;;;;7.80;100.00;95363.22;5032519;28;20760;-61
2022/10/21 04:39:56;;;;;;;12.50;8.30;;;;;;;7.98;100.00;95385.66;5050222;28;20214;-59
2022/10/21 04:42:21;;;;;;;15.03;8.90;;;;;;;7.82;100.00;95367.25;5032333;28;20196;-58
2022/10/21 04:44:47;;;;;;;13.20;9.87;;;;;;;7.96;100.00;95357.09;5050473;28;20311;-58
2022/10/21 04:47:12;;;;;;;17.00;9.63;;;;;;;7.98;100.00;95360.31;5052259;28;20640;-59
2022/10/21 04:49:38;;;;;;;19.33;10.30;;;;;;;7.88;100.00;95364.34;5053939;28;20221;-59
2022/10/21 04:52:03;;;;;;;18.37;10.50;;;;;;;7.72;100.00;95347.69;5053722;28;20304;-61
2022/10/21 04:54:28;;;;;;;16.87;10.50;;;;;;;7.77;100.00;95356.63;5053879;28;20659;-61
2022/10/21 04:56:54;;;;;;;14.37;9.13;;;;;;;7.92;100.00;95370.06;5053466;28;20193;-61
2022/10/21 04:59:20;;;;;;;15.80;10.23;;;;;;;7.92;100.00;95355.66;5053936;28;20220;-59
2022/10/21 05:01:52;;;;;;;17.00;9.73;;;;;;;7.91;100.00;95356.56;5053564;28;20675;-60
2022/10/21 05:04:18;;;;;;;21.37;9.87;;;;;;;7.87;100.00;95355.16;5053821;28;20270;-61
2022/10/21 05:06:43;;;;;;;21.47;10.50;;;;;;;7.80;100.00;95355.63;5053557;28;20186;-61
2022/10/21 05:09:09;;;;;;;15.47;10.03;;;;;;;7.84;100.00;95347.72;5053549;28;20217;-61
2022/10/21 05:11:34;;;;;;;20.97;10.77;;;;;;;7.74;100.00;95343.38;5053414;28;20213;-61
2022/10/21 05:14:00;;;;;;;22.63;11.50;;;;;;;7.95;100.00;95354.66;5053413;28;20691;-61
2022/10/21 05:16:25;;;;;;;19.73;9.87;;;;;;;7.91;100.00;95358.28;5053272;28;20185;-60
2022/10/21 05:18:51;;;;;;;17.60;11.03;;;;;;;7.79;100.00;95359.06;5053396;28;20217;-59
2022/10/21 05:21:16;;;;;;;18.70;10.70;;;;;;;7.84;100.00;95347.72;5035576;28;20272;-59
2022/10/21 05:23:42;;;;;;;19.67;10.03;;;;;;;8.09;100.00;95363.00;5053417;28;20185;-61
2022/10/21 05:26:07;;;;;;;17.53;10.67;;;;;;;8.13;100.00;95368.69;5019046;28;20200;-61
2022/10/21 05:28:33;;;;;;;26.13;11.67;;;;;;;8.18;100.00;95372.53;5053462;28;20273;-61
2022/10/21 05:30:58;;;;;;;22.90;12.47;;;;;;;8.31;100.00;95390.31;5053008;28;20217;-59
2022/10/21 05:33:24;;;;;;;31.47;13.73;;;;;;;8.39;100.00;95399.06;5053319;28;20217;-61
2022/10/21 05:35:59;;;;;;;31.87;17.67;;;;;;;8.37;100.00;95405.97;5052969;28;20205;-60
2022/10/21 05:38:25;;;;;;;27.20;14.67;;;;;;;8.52;100.00;95410.94;5052991;28;20639;-62
2022/10/21 05:40:51;;;;;;;26.23;15.73;;;;;;;8.54;100.00;95415.00;5052905;28;20272;-61
2022/10/21 05:43:16;;;;;;;26.97;16.13;;;;;;;8.73;100.00;95433.16;5052764;28;20556;-61
2022/10/21 05:45:42;;;;;;;26.60;14.13;;;;;;;8.74;100.00;95437.34;5052928;28;20213;-59
2022/10/21 05:48:07;;;;;;;24.77;13.97;;;;;;;8.77;100.00;95438.84;5052916;28;20255;-60
2022/10/21 05:50:33;;;;;;;24.10;12.90;;;;;;;8.82;100.00;95430.06;5052095;28;20721;-60
2022/10/21 05:52:58;;;;;;;26.50;13.67;;;;;;;8.83;100.00;95433.38;5049388;28;20202;-61
2022/10/21 05:55:23;;;;;;;24.20;11.97;;;;;;;8.96;100.00;95442.63;5056866;23;20248;-62
2022/10/21 05:57:49;;;;;;;22.27;11.97;;;;;;;9.03;100.00;95437.97;5050520;28;20190;-61
2022/10/21 06:00:14;;;;;;;23.70;12.73;;;;;;;8.91;100.00;95418.47;5052684;28;20209;-60
2022/10/21 06:02:40;;;;;;;18.87;10.73;;;;;;;9.00;100.00;95428.84;5052611;28;20189;-61
2022/10/21 06:05:06;;;;;;;15.77;10.90;;;;;;;9.02;100.00;95436.34;5052542;28;20209;-62
2022/10/21 06:07:31;;;;;;;20.97;11.50;;;;;;;9.18;100.00;95444.56;5052649;28;20239;-61
2022/10/21 06:09:57;;;;;;;19.13;11.30;;;;;;;9.19;100.00;95446.97;5034697;28;20809;-62
2022/10/21 06:12:22;;;;;;;21.83;11.90;;;;;;;9.38;100.00;95473.66;5052553;28;20215;-61
2022/10/21 06:14:47;;;;;;;19.00;10.90;;;;;;;9.34;100.00;95460.38;5052624;28;20232;-61
2022/10/21 06:17:13;;;;;;;15.57;10.83;;;;;;;9.25;100.00;95430.56;5052466;28;20648;-64
2022/10/21 06:19:38;;;;;;;17.70;10.47;;;;;;;9.14;100.00;95421.13;5052573;28;20213;-60
2022/10/21 06:22:04;;;;;;;22.20;11.40;;;;;;;9.17;100.00;95420.13;5052717;28;20189;-59
2022/10/21 06:24:29;;;;;;;17.77;11.20;;;;;;;9.12;100.00;95406.91;5034508;28;20240;-62
2022/10/21 06:26:55;;;;;;;18.07;11.60;;;;;;;9.20;100.00;95408.03;5052248;28;20194;-62
2022/10/21 06:29:20;;;;;;;19.70;10.90;;;;;;;9.36;100.00;95424.75;5052432;28;20218;-61
2022/10/21 06:31:45;;;;;;;18.73;9.97;;;;;;;9.24;100.00;95408.63;5052236;28;20753;-60
2022/10/21 06:34:11;;;;;;;17.30;9.13;;;;;;;9.31;100.00;95420.00;5052522;28;20198;-61
2022/10/21 06:36:39;;;;;;;13.13;8.70;;;;;;;9.50;100.00;95448.28;5050763;28;20549;-63
2022/10/21 06:39:06;;;;;;;16.63;8.27;;;;;;;9.66;100.00;95464.09;5052259;28;20625;-62
2022/10/21 06:41:31;;;;;;;13.33;7.80;;;;;;;9.57;100.00;95459.66;5052269;28;20201;-60
2022/10/21 06:43:57;;;;;;;15.17;8.90;;;;;;;9.50;100.00;95448.28;5052144;28;20209;-60
2022/10/21 06:46:23;;;;;;;11.33;8.40;;;;;;;9.72;100.00;95468.75;5034210;28;20186;-59
2022/10/21 06:48:48;;;;;;;12.10;8.03;;;;;;;9.60;100.00;95446.75;5051880;28;20205;-61
2022/10/21 06:51:20;;;;;;;13.40;7.90;;;;;;;9.75;100.00;95460.94;5043143;23;20229;-62
2022/10/21 06:53:50;;;;;;;16.27;9.03;;;;;;;9.84;100.00;95455.22;5031945;28;20746;-62
2022/10/21 06:56:17;;;;;;;14.60;8.20;;;;;;;10.02;100.00;95486.97;5032110;28;20668;-61
2022/10/21 06:58:45;;;;;;;18.10;7.30;;;;;;;10.11;100.00;95506.69;5031822;28;20275;-58
2022/10/21 07:01:23;;;;;;;16.60;8.30;;;;;;;10.12;100.00;95505.75;5032278;28;20674;-61
2022/10/21 07:03:48;;;;;;;12.97;8.10;;;;;;;10.21;100.00;95485.72;5031717;28;20240;-61
2022/10/21 07:06:15;;;;;;;14.57;8.00;;;;;;;10.34;99.74;95506.81;5031816;28;20221;-61
2022/10/21 07:08:40;;;;;;;19.27;9.93;;;;;;;10.37;100.00;95498.97;5031759;28;20190;-59
2022/10/21 07:11:07;;;;;;;14.80;8.67;;;;;;;10.52;98.09;95529.22;5031600;28;20225;-59
2022/10/21 07:13:34;;;;;;;13.20;9.03;;;;;;;10.45;99.22;95509.41;5031694;28;20656;-63
2022/10/21 07:16:05;;;;;;;13.37;9.33;;;;;;;10.64;97.74;95530.09;5031745;28;20225;-60
2022/10/21 07:18:31;;;;;;;16.27;9.00;;;;;;;10.77;96.85;95535.91;5031771;28;20214;-58
2022/10/21 07:21:08;;;;;;;12.30;8.23;;;;;;;10.80;97.12;95535.69;5032036;28;20183;-62
2022/10/21 07:23:34;;;;;;;12.23;9.00;;;;;;;10.92;96.17;95524.66;5031676;28;20609;-62
2022/10/21 07:26:07;;;;;;;15.83;8.67;;;;;;;10.88;97.92;95507.97;5031340;28;20198;-62
2022/10/21 07:28:34;;;;;;;17.13;8.77;;;;;;;11.08;96.30;95530.25;5031571;28;20194;-62
2022/10/21 07:30:59;;;;;;;11.57;8.03;;;;;;;11.23;94.56;95559.66;5031677;28;20193;-59
2022/10/21 07:33:26;;;;;;;15.47;8.50;;;;;;;11.39;94.68;95549.19;5031491;28;20186;-61
2022/10/21 07:36:00;;;;;;;14.63;9.00;;;;;;;11.53;92.18;95585.41;5031308;28;20182;-59
2022/10/21 07:38:26;;;;;;;15.07;9.87;;;;;;;11.68;91.51;95581.78;5031431;28;20188;-61
2022/10/21 07:40:51;;;;;;;18.03;9.07;;;;;;;11.75;91.87;95572.78;5031945;28;20193;-63
2022/10/21 07:43:17;;;;;;;20.90;10.20;;;;;;;11.95;90.13;95593.41;5031457;28;20232;-62
2022/10/21 07:45:43;;;;;;;18.70;11.07;;;;;;;12.04;90.68;95582.53;5031466;28;20233;-62
2022/10/21 07:48:09;;;;;;;14.33;10.40;;;;;;;12.37;88.25;95618.19;5031278;28;20189;-62
2022/10/21 07:50:36;;;;;;;15.90;9.97;;;;;;;12.57;86.62;95632.78;5031454;28;20285;-61
2022/10/21 07:53:01;;;;;;;16.03;10.13;;;;;;;12.80;85.24;95643.75;5031122;28;20217;-62
2022/10/21 07:55:28;;;;;;;17.50;10.77;;;;;;;12.97;83.98;95656.03;5030913;28;20588;-62
2022/10/21 07:57:53;;;;;;;17.87;10.43;;;;;;;13.03;84.42;95635.94;5030998;28;20216;-60
2022/10/21 08:00:19;;;;;;;14.73;10.10;;;;;;;13.23;83.11;95652.28;5030795;28;20672;-61
2022/10/21 08:02:45;;;;;;;15.67;10.17;;;;;;;13.31;82.36;95665.25;5031059;28;20265;-61
2022/10/21 08:05:10;;;;;;;15.60;10.23;;;;;;;13.64;80.00;95687.28;5013159;28;20210;-62
2022/10/21 08:07:35;;;;;;;15.73;10.67;;;;;;;13.82;79.89;95680.69;5031064;28;20197;-62
2022/10/21 08:10:01;;;;;;;15.40;9.27;;;;;;;14.18;78.81;95698.16;5013417;28;20691;-59
2022/10/21 08:12:27;;;;;;;13.43;9.37;;;;;;;14.45;76.40;95730.91;5030794;28;20210;-61
2022/10/21 08:14:52;;;;;;;15.10;9.20;;;;;;;14.64;76.25;95725.91;5030465;28;20216;-62
2022/10/21 08:17:18;;;;;;;14.55;9.55;;;;;;;14.83;75.06;95734.47;5030807;28;20185;-60
2022/10/21 08:19:44;;;;;;;12.95;9.80;;;;;;;15.00;74.12;95744.09;5030758;28;20264;-58
2022/10/21 08:22:10;;;;;;;15.82;10.15;;;;;;;14.98;74.22;95727.25;5015019;28;20363;-60
2022/10/21 08:24:35;;;;;;;14.77;9.88;;;;;;;15.03;73.38;95732.75;5034182;28;20271;-61
2022/10/21 08:27:02;;;;;;;15.70;10.20;;;;;;;15.00;74.68;95699.75;5016423;28;20696;-62
2022/10/21 08:29:27;;;;;;;18.58;10.00;;;;;;;15.38;73.21;95725.44;5034159;28;20206;-60
2022/10/21 08:31:53;;;;;;;13.80;10.00;;;;;;;15.84;70.59;95778.69;5034130;28;20748;-60
2022/10/21 08:34:18;;;;;;;13.80;9.75;;;;;;;16.11;71.08;95758.31;5016213;28;20217;-61
2022/10/21 08:36:43;;;;;;;18.75;10.13;;;;;;;16.29;69.96;95782.31;5016248;28;20202;-60
2022/10/21 08:39:09;;;;;;;19.20;11.13;;;;;;;16.60;66.79;95834.34;5033932;28;20233;-62
2022/10/21 08:41:55;;;;;;;13.30;11.20;;;;;;;16.77;66.25;95825.91;5034081;28;20269;-61
2022/10/21 08:44:25;;;;;;;14.75;10.75;;;;;;;16.74;66.15;95809.03;5042422;22;20707;-61
2022/10/21 08:47:25;;;;;;;19.38;10.68;;;;;;;16.84;65.80;95797.91;5073540;28;20196;-61
2022/10/21 08:50:19;;;;;;;12.07;9.93;;;;;;;17.34;64.41;95830.06;5052465;28;20233;-63
2022/10/21 08:52:59;;;;;;;16.17;9.48;;;;;;;17.11;62.08;95862.22;5053900;28;20699;-63
2022/10/21 08:55:41;;;;;;;14.52;10.27;;;;;;;17.30;63.83;95808.16;5054226;28;20221;-60
2022/10/21 08:58:24;;;;;;;15.98;10.93;;;;;;;17.66;62.86;95838.19;5053639;28;20281;-63
2022/10/21 09:01:04;;;;;;;13.98;10.90;;;;;;;17.96;61.45;95855.06;5053623;28;20304;-61
2022/10/21 09:03:44;;;;;;;15.02;9.15;;;;;;;18.10;59.62;95881.13;5053628;28;20694;-61
2022/10/21 09:06:26;;;;;;;16.98;9.15;;;;;;;18.21;59.16;95904.09;5053730;28;20217;-62
2022/10/21 09:09:38;;;;;;;13.85;10.70;;;;;;;18.26;58.78;95891.56;5053913;28;20198;-63
2022/10/21 09:12:28;;;;;;;14.35;10.23;;;;;;;18.48;58.59;95874.13;4992064;28;20689;-62
2022/10/21 09:15:22;;;;;;;15.75;10.23;;;;;;;18.77;57.26;95903.81;4992059;28;20417;-61
2022/10/21 09:18:16;;;;;;;13.48;9.80;;;;;;;18.88;57.00;95895.06;5045737;28;20679;-59
2022/10/21 09:20:51;;;;;;;14.73;9.48;;;;;;;19.12;55.25;95933.88;5053626;28;20229;-60
2022/10/21 09:23:22;;;;;;;13.32;9.10;;;;;;;19.38;55.06;95908.94;5053289;28;20561;-63
2022/10/21 09:25:50;;;;;;;15.68;9.88;;;;;;;19.47;54.56;95920.94;5053270;28;20228;-60
2022/10/21 09:28:16;;;;;;;16.48;9.90;;;;;;;19.71;54.03;95933.16;5053237;28;20194;-61
2022/10/21 09:30:43;;;;;;;13.60;9.30;;;;;;;19.94;52.91;95954.84;5053326;28;20213;-61
2022/10/21 09:33:22;;;;;;;16.40;10.13;;;;;;;19.85;52.45;95954.03;5051776;28;20814;-61
2022/10/21 09:36:06;;;;;;;13.18;10.32;;;;;;;20.06;52.02;95953.63;5053171;28;20232;-59
2022/10/21 09:38:32;;;;;;;14.63;9.32;;;;;;;19.81;50.81;95975.97;5053208;28;20177;-61
2022/10/21 09:41:02;;;;;;;12.65;8.80;;;;;;;20.08;52.04;95929.25;5053504;28;20202;-61
2022/10/21 09:43:28;;;;;;;12.45;10.13;;;;;;;20.09;52.40;95906.84;5053250;28;20190;-59
2022/10/21 09:45:54;;;;;;;15.57;9.27;;;;;;;20.07;51.53;95934.59;5051851;28;20189;-60
2022/10/21 09:48:31;;;;;;;14.65;9.13;;;;;;;19.95;50.62;95961.66;5068304;28;20198;-62
2022/10/21 09:51:03;;;;;;;11.80;9.70;;;;;;;20.18;50.10;95964.50;5053280;28;20186;-61
2022/10/21 09:53:49;;;;;;;15.18;10.07;;;;;;;20.70;49.64;95986.63;5052781;28;20273;-61
2022/10/21 09:56:34;;;;;;;11.30;8.95;;;;;;;20.92;48.26;96022.22;5052864;28;20220;-61
2022/10/21 09:59:07;;;;;;;13.43;8.40;;;;;;;21.12;48.38;96013.22;5052746;28;20237;-61
2022/10/21 10:01:34;;;;;;;13.20;9.57;;;;;;;21.38;47.70;96034.56;5052739;28;20590;-60
2022/10/21 10:04:09;;;;;;;14.90;9.20;;;;;;;21.40;47.08;95980.84;5052526;28;20629;-61
2022/10/21 10:06:37;;;;;;;11.05;9.25;;;;;;;21.54;46.52;95941.38;5052600;28;20242;-61
2022/10/21 10:09:29;;;;;;;20.42;9.07;;;;;;;21.53;46.37;95924.19;5052501;28;20197;-61
2022/10/21 10:12:11;;;;;;;13.32;9.43;;;;;;;21.43;47.10;95889.16;5052353;28;20217;-60
2022/10/21 10:14:45;;;;;;;11.02;9.32;;;;;;;21.57;46.49;95898.81;5052527;28;20216;-61
2022/10/21 10:17:22;;;;;;;13.75;9.52;;;;;;;21.94;46.23;95891.25;5052586;28;20248;-63
2022/10/21 10:20:03;;;;;;;11.13;8.77;;;;;;;22.15;45.78;95898.44;5052167;28;20301;-62
2022/10/21 10:22:34;;;;;;;12.55;9.48;;;;;;;22.28;46.31;95862.41;5052306;28;20196;-62
2022/10/21 10:25:12;;;;;;;11.32;8.55;;;;;;;22.40;44.33;95918.84;5052368;28;20263;-62
2022/10/21 10:27:47;;;;;;;11.88;8.63;;;;;;;22.56;44.34;95898.00;5067390;28;20590;-61
2022/10/21 10:30:14;;;;;;;11.63;8.82;;;;;;;22.45;44.68;95866.50;5052257;28;20291;-63
2022/10/21 10:32:39;;;;;;;10.82;8.88;;;;;;;22.56;44.03;95892.81;5052187;28;20220;-61
2022/10/21 10:35:14;;;;;;;11.38;8.02;;;;;;;22.10;44.29;95864.47;5052391;28;20205;-60
2022/10/21 10:37:47;;;;;;;12.65;9.63;;;;;;;21.98;44.90;95842.53;5052056;28;20283;-61
2022/10/21 10:40:22;;;;;;;13.73;8.93;;;;;;;21.98;45.10;95830.34;5052266;28;20202;-59
2022/10/21 10:42:50;;;;;;;15.23;10.55;;;;;;;22.16;44.32;95846.44;5052103;28;20185;-62
2022/10/21 10:45:19;;;;;;;17.30;9.90;;;;;;;22.15;44.53;95824.13;5051287;28;20627;-61
2022/10/21 10:48:04;;;;;;;12.82;9.88;;;;;;;22.12;44.41;95815.88;5051975;28;20182;-61
2022/10/21 10:50:36;;;;;;;14.52;9.35;;;;;;;21.78;44.99;95795.47;5052361;28;20205;-60
2022/10/21 10:53:36;;;;;;;14.43;9.88;;;;;;;21.87;45.21;95775.56;5051807;28;20211;-60
2022/10/21 10:56:10;;;;;;;14.85;9.52;;;;;;;21.86;44.99;95776.53;5052439;28;20189;-60
2022/10/21 10:58:40;;;;;;;12.43;9.00;;;;;;;22.15;45.03;95771.50;5050425;28;20196;-61
2022/10/21 11:01:16;;;;;;;16.60;9.48;;;;;;;21.73;44.96;95779.66;5051863;28;20192;-61
2022/10/21 11:03:53;;;;;;;20.98;9.73;;;;;;;21.69;45.67;95742.94;5049993;22;20233;-60
2022/10/21 11:06:30;;;;;;;14.70;9.02;;;;;;;21.56;44.71;95772.94;5012153;28;20182;-61
2022/10/21 11:08:58;;;;;;;13.48;8.77;;;;;;;21.83;44.33;95779.47;5012117;28;20221;-61
2022/10/21 11:11:29;;;;;;;11.18;8.45;;;;;;;21.97;43.41;95802.06;5012037;28;20678;-61
2022/10/21 11:13:56;;;;;;;11.35;9.07;;;;;;;21.81;44.35;95763.28;5010577;28;20218;-62
2022/10/21 11:16:35;;;;;;;10.27;8.20;;;;;;;21.37;45.59;95725.00;5011821;28;20187;-61
2022/10/21 11:19:24;;;;;;;10.55;8.60;;;;;;;21.49;45.54;95713.28;5012095;28;20221;-62
2022/10/21 11:21:54;;;;;;;12.30;9.00;;;;;;;21.56;45.47;95716.00;5012030;28;20542;-61
2022/10/21 11:24:51;;;;;;;13.10;9.10;;;;;;;21.66;45.95;95704.47;5011889;28;20214;-60
2022/10/21 11:27:44;;;;;;;12.60;9.15;;;;;;;21.38;46.20;95682.63;5011586;28;20183;-61
2022/10/21 11:30:19;;;;;;;17.88;8.07;;;;;;;21.76;45.33;95712.00;5011425;28;20680;-63
2022/10/21 11:33:06;;;;;;;15.73;9.10;;;;;;;21.38;45.04;95708.50;5011541;28;20218;-62
2022/10/21 11:35:49;;;;;;;13.27;9.02;;;;;;;21.65;45.49;95695.06;5011521;28;20313;-61
2022/10/21 11:38:49;;;;;;;16.77;9.88;;;;;;;22.05;43.92;95734.66;5011445;28;20195;-61
2022/10/21 11:41:18;;;;;;;11.27;8.50;;;;;;;22.33;42.63;95779.78;5011775;28;20222;-61